Time;durP1;ratioP1;P1;durP2;ratioP2;P2;SDS_P1;SDS_P2;PMS_P1;PMS_P2;Temp;Humidity;BMP_temperature;BMP_pressure;BME280_temperature;BME280_humidity;BME280_pressure;Samples;Min_cycle;Max_cycle;Signal;HPM_P1;HPM_P2
2023/12/04 00:00:28;;;;;;;18.33;11.17;;;-4.00;80.80;;;-1.71;57.64;97701.47;5011342;28;20053;-60
2023/12/04 00:02:56;;;;;;;17.20;9.00;;;-3.90;81.60;;;-1.71;57.47;97698.88;5011029;28;20050;-59
2023/12/04 00:05:23;;;;;;;14.03;8.07;;;-3.80;80.80;;;-1.72;57.60;97694.59;5010778;28;20068;-59
2023/12/04 00:07:51;;;;;;;17.87;8.97;;;-3.90;81.10;;;-1.72;57.54;97686.75;5011638;28;20042;-59
2023/12/04 00:10:19;;;;;;;19.93;10.50;;;-4.00;81.00;;;-1.74;57.57;97686.00;5011129;28;20045;-61
2023/12/04 00:12:47;;;;;;;18.77;9.43;;;-4.00;80.90;;;-1.75;57.40;97674.69;5011196;28;20037;-61
2023/12/04 00:15:15;;;;;;;14.63;9.43;;;-4.00;80.30;;;-1.71;57.90;97673.59;5010205;28;20041;-59
2023/12/04 00:17:43;;;;;;;16.70;9.90;;;-3.90;81.30;;;-1.71;57.55;97662.31;5011128;28;20049;-61
2023/12/04 00:20:11;;;;;;;17.77;8.97;;;-3.90;80.80;;;-1.70;57.72;97658.81;5009920;28;20045;-59
2023/12/04 00:22:39;;;;;;;17.33;9.17;;;-3.80;80.60;;;-1.67;57.58;97656.00;5010971;28;20094;-59
2023/12/04 00:25:07;;;;;;;15.40;8.73;;;-3.80;80.80;;;-1.66;57.68;97661.16;5010996;28;20049;-59
2023/12/04 00:27:34;;;;;;;17.30;9.87;;;-3.80;80.20;;;-1.66;57.27;97657.69;5010900;28;20411;-60
2023/12/04 00:30:04;;;;;;;17.47;9.07;;;-3.90;80.80;;;-1.65;57.44;97662.84;5010963;28;20050;-59
2023/12/04 00:32:32;;;;;;;41.83;17.30;;;-3.90;80.30;;;-1.65;57.22;97669.81;5010917;28;20054;-60
2023/12/04 00:34:59;;;;;;;27.63;13.13;;;-3.90;79.60;;;-1.71;56.94;97665.78;5010792;28;20057;-59
2023/12/04 00:37:27;;;;;;;20.23;11.33;;;-3.90;79.60;;;-1.72;57.23;97666.72;5010764;28;20061;-59
2023/12/04 00:39:55;;;;;;;16.00;8.90;;;-3.90;79.50;;;-1.74;57.00;97655.50;5010856;28;20049;-59
2023/12/04 00:42:23;;;;;;;18.47;9.97;;;-3.90;79.60;;;-1.74;57.31;97646.84;5010962;28;20049;-59
2023/12/04 00:44:50;;;;;;;18.50;10.33;;;-4.00;79.00;;;-1.78;57.14;97640.94;5010849;28;20041;-59
2023/12/04 00:47:18;;;;;;;17.73;9.40;;;-4.00;79.70;;;-1.79;56.86;97637.47;5011365;28;20038;-60
2023/12/04 00:49:45;;;;;;;21.20;9.70;;;-4.10;79.40;;;-1.81;57.18;97634.13;5011417;28;20065;-59
2023/12/04 00:52:13;;;;;;;16.60;9.73;;;-4.10;79.50;;;-1.83;57.36;97633.34;5010961;28;20050;-59
2023/12/04 00:54:41;;;;;;;17.67;8.60;;;-4.10;80.10;;;-1.82;57.46;97634.22;5011170;28;20052;-59
2023/12/04 00:57:09;;;;;;;19.67;9.97;;;-4.10;80.60;;;-1.80;57.18;97637.59;5011220;28;20057;-60
2023/12/04 00:59:36;;;;;;;17.93;9.37;;;-4.00;80.90;;;-1.77;57.48;97626.13;5010465;28;20061;-60
2023/12/04 01:02:07;;;;;;;14.60;9.13;;;-4.00;80.60;;;-1.74;57.77;97621.59;5010738;28;20041;-60
2023/12/04 01:04:35;;;;;;;13.10;7.30;;;-3.90;80.90;;;-1.71;57.71;97634.44;5010626;28;20041;-59
2023/12/04 01:07:02;;;;;;;15.40;8.87;;;-3.80;80.60;;;-1.68;57.45;97638.69;5010849;28;20515;-59
2023/12/04 01:09:30;;;;;;;15.53;8.90;;;-3.80;80.40;;;-1.66;57.68;97642.88;5010851;28;20060;-61
2023/12/04 01:11:58;;;;;;;13.67;8.90;;;-3.80;80.60;;;-1.61;57.91;97635.63;5010824;28;20049;-61
2023/12/04 01:14:25;;;;;;;17.23;9.70;;;-3.70;80.50;;;-1.58;57.57;97638.06;5010143;28;20034;-60
2023/12/04 01:16:54;;;;;;;12.83;7.90;;;-3.70;79.60;;;-1.57;57.75;97631.09;5013598;28;20427;-60
2023/12/04 01:19:21;;;;;;;13.23;7.67;;;-3.80;79.50;;;-1.60;57.36;97623.41;5014401;28;20049;-60
2023/12/04 01:21:49;;;;;;;14.77;7.93;;;-3.90;78.90;;;-1.65;57.58;97620.22;5014286;28;20046;-60
2023/12/04 01:24:17;;;;;;;15.03;8.17;;;-3.90;79.40;;;-1.64;57.27;97622.75;5013242;28;20049;-59
2023/12/04 01:26:44;;;;;;;13.83;8.03;;;-3.90;80.20;;;-1.63;57.29;97613.13;5013776;28;20044;-59
2023/12/04 01:29:12;;;;;;;14.77;8.37;;;-3.90;79.40;;;-1.62;57.18;97610.44;5013962;28;20479;-59
2023/12/04 01:31:40;;;;;;;12.80;7.93;;;-3.90;79.50;;;-1.60;57.76;97613.81;5012936;28;20061;-59
2023/12/04 01:34:07;;;;;;;14.33;7.87;;;-3.80;79.70;;;-1.56;57.76;97614.47;5014308;28;20052;-59
2023/12/04 01:36:35;;;;;;;15.63;8.20;;;-3.80;79.50;;;-1.52;57.77;97620.38;5013789;28;20418;-60
2023/12/04 01:39:03;;;;;;;14.33;8.23;;;-3.70;79.40;;;-1.52;57.45;97610.75;5013787;28;20050;-59
2023/12/04 01:41:31;;;;;;;15.23;7.60;;;-3.70;78.70;;;-1.52;57.73;97612.53;5013830;28;20061;-59
2023/12/04 01:43:58;;;;;;;13.23;8.43;;;-3.70;79.20;;;-1.53;57.35;97606.50;5013717;28;20507;-59
2023/12/04 01:46:26;;;;;;;25.07;11.43;;;-3.80;78.60;;;-1.52;56.87;97604.72;5013515;28;20045;-59
2023/12/04 01:48:54;;;;;;;14.77;7.83;;;-3.70;79.20;;;-1.53;57.35;97603.88;5013378;28;20427;-59
2023/12/04 01:51:23;;;;;;;13.90;8.33;;;-3.70;79.00;;;-1.54;57.41;97596.13;5012612;28;20069;-59
2023/12/04 01:53:51;;;;;;;18.93;8.93;;;-3.80;78.60;;;-1.54;56.87;97598.72;5013535;28;20480;-59
2023/12/04 01:56:20;;;;;;;14.30;8.17;;;-3.80;79.20;;;-1.52;56.96;97592.47;5013359;28;20038;-59
2023/12/04 01:58:48;;;;;;;15.23;7.80;;;-3.80;79.50;;;-1.51;57.61;97588.09;5012180;28;20491;-59
2023/12/04 02:01:15;;;;;;;12.57;6.87;;;-3.70;78.70;;;-1.51;57.32;97583.75;5012232;28;20049;-59
2023/12/04 02:03:43;;;;;;;13.63;7.30;;;-3.70;78.70;;;-1.53;57.18;97584.72;5013590;28;20049;-59
2023/12/04 02:06:12;;;;;;;12.87;7.13;;;-3.70;78.40;;;-1.53;57.10;97587.34;5012103;28;20061;-59
2023/12/04 02:08:43;;;;;;;14.17;8.20;;;-3.70;78.70;;;-1.51;57.44;97583.75;5012206;28;20045;-59
2023/12/04 02:11:11;;;;;;;12.13;6.47;;;-3.60;78.80;;;-1.52;57.42;97582.03;5013192;28;20046;-59
2023/12/04 02:13:39;;;;;;;10.03;6.23;;;-3.60;78.20;;;-1.53;58.04;97583.00;5011076;28;20093;-59
2023/12/04 02:16:11;;;;;;;14.63;7.23;;;-3.50;77.60;;;-1.51;57.78;97575.03;4995220;28;20056;-59
2023/12/04 02:18:40;;;;;;;13.67;6.90;;;-3.50;77.60;;;-1.54;57.38;97575.22;5013373;28;20044;-59
2023/12/04 02:21:08;;;;;;;10.50;6.90;;;-3.60;77.60;;;-1.58;57.19;97570.19;5012956;28;20415;-59
2023/12/04 02:23:35;;;;;;;13.13;7.37;;;-3.50;77.30;;;-1.56;57.68;97564.88;5012317;28;20046;-59
2023/12/04 02:26:10;;;;;;;13.03;6.93;;;-3.50;77.60;;;-1.50;57.70;97569.72;5012542;28;20057;-59
2023/12/04 02:28:39;;;;;;;10.73;6.73;;;-3.50;77.00;;;-1.50;57.61;97574.13;5011880;28;20049;-59
2023/12/04 02:31:09;;;;;;;10.10;5.70;;;-3.60;77.30;;;-1.55;57.26;97581.38;5011703;28;20049;-59
2023/12/04 02:33:38;;;;;;;8.77;5.23;;;-3.60;77.80;;;-1.58;57.33;97572.78;5011696;28;20057;-59
2023/12/04 02:36:07;;;;;;;11.87;6.53;;;-3.70;76.60;;;-1.59;57.10;97583.31;5011136;28;20061;-59
2023/12/04 02:38:35;;;;;;;11.20;6.63;;;-3.70;77.80;;;-1.58;57.21;97570.19;5011782;28;20046;-59
2023/12/04 02:41:03;;;;;;;11.37;6.50;;;-3.70;77.80;;;-1.61;56.83;97566.91;5012380;28;20050;-59
2023/12/04 02:43:33;;;;;;;14.10;6.83;;;-3.80;77.40;;;-1.61;57.16;97554.69;5012663;28;20048;-59
2023/12/04 02:46:01;;;;;;;11.13;6.37;;;-3.80;78.10;;;-1.55;57.19;97550.03;5011521;28;20045;-59
2023/12/04 02:48:28;;;;;;;11.23;6.60;;;-3.80;78.20;;;-1.54;57.02;97546.50;5012314;28;20046;-59
2023/12/04 02:50:56;;;;;;;10.87;6.27;;;-3.70;78.00;;;-1.53;57.23;97537.72;5012345;28;20061;-60
2023/12/04 02:53:24;;;;;;;11.53;6.83;;;-3.60;78.40;;;-1.52;57.32;97537.66;5012591;28;20433;-59
2023/12/04 02:55:52;;;;;;;10.93;6.27;;;-3.60;77.70;;;-1.51;56.71;97526.28;5012125;28;20042;-60
2023/12/04 02:58:19;;;;;;;11.73;6.93;;;-3.60;77.60;;;-1.49;57.35;97526.19;5004845;28;20038;-59
2023/12/04 03:00:47;;;;;;;12.73;6.70;;;-3.60;77.80;;;-1.51;57.27;97517.59;5012383;28;20411;-59
2023/12/04 03:03:15;;;;;;;13.03;7.00;;;-3.60;77.40;;;-1.50;56.89;97516.69;5012151;28;20049;-59
2023/12/04 03:05:42;;;;;;;10.57;5.80;;;-3.60;77.70;;;-1.49;57.36;97511.38;5011204;28;20037;-61
2023/12/04 03:08:10;;;;;;;11.73;6.13;;;-3.60;78.00;;;-1.49;57.47;97500.06;5012349;28;20411;-59
2023/12/04 03:10:37;;;;;;;11.80;5.57;;;-3.60;77.10;;;-1.49;57.58;97498.31;5012270;28;20041;-59
2023/12/04 03:13:05;;;;;;;12.27;6.70;;;-3.50;77.70;;;-1.49;57.21;97494.84;5011635;28;20427;-61
2023/12/04 03:15:33;;;;;;;11.70;6.70;;;-3.50;76.80;;;-1.55;57.27;97495.22;5011460;28;20042;-59
2023/12/04 03:18:01;;;;;;;8.83;5.53;;;-3.50;77.10;;;-1.53;56.92;97493.34;5011071;28;20042;-59
2023/12/04 03:20:32;;;;;;;14.30;6.63;;;-3.50;77.70;;;-1.54;57.28;97489.91;5011962;28;20049;-60
2023/12/04 03:23:00;;;;;;;10.70;5.80;;;-3.50;76.20;;;-1.57;56.75;97484.88;5010663;28;20046;-61
2023/12/04 03:25:28;;;;;;;14.03;7.10;;;-3.50;76.60;;;-1.55;57.28;97476.94;5011587;28;20049;-61
2023/12/04 03:27:55;;;;;;;13.40;6.80;;;-3.40;76.50;;;-1.57;57.21;97479.66;5012137;28;20046;-61
2023/12/04 03:30:23;;;;;;;12.13;6.77;;;-3.40;76.10;;;-1.52;57.56;97477.59;5012007;28;20050;-61
2023/12/04 03:32:50;;;;;;;11.80;6.60;;;-3.40;76.80;;;-1.46;57.46;97472.00;5011977;28;20046;-61
2023/12/04 03:35:18;;;;;;;11.07;5.80;;;-3.40;76.40;;;-1.43;56.88;97461.41;5011634;28;20046;-61
2023/12/04 03:37:46;;;;;;;10.50;6.37;;;-3.30;76.50;;;-1.41;57.46;97450.88;5010977;28;20045;-58
2023/12/04 03:40:13;;;;;;;11.47;6.23;;;-3.40;76.00;;;-1.40;57.35;97444.69;5011673;28;20042;-61
2023/12/04 03:42:41;;;;;;;11.23;7.30;;;-3.30;76.20;;;-1.38;57.09;97445.44;5011813;28;20044;-61
2023/12/04 03:45:09;;;;;;;11.23;5.80;;;-3.30;76.20;;;-1.37;57.16;97449.75;5011365;28;20073;-61
2023/12/04 03:47:37;;;;;;;12.87;6.37;;;-3.30;75.80;;;-1.37;57.47;97446.31;5011590;28;20499;-61
2023/12/04 03:50:05;;;;;;;11.00;6.03;;;-3.30;75.80;;;-1.34;57.05;97431.25;5011352;28;20045;-61
2023/12/04 03:52:33;;;;;;;11.17;6.03;;;-3.30;75.90;;;-1.31;57.23;97435.47;5011564;28;20046;-61
2023/12/04 03:55:01;;;;;;;12.70;7.20;;;-3.40;76.00;;;-1.35;56.80;97431.38;5010923;28;20038;-61
2023/12/04 03:57:28;;;;;;;13.07;7.50;;;-3.50;76.00;;;-1.33;56.68;97435.56;5011546;28;20049;-61
2023/12/04 03:59:56;;;;;;;13.77;8.00;;;-3.40;76.50;;;-1.37;56.60;97438.47;5011549;28;20042;-59
2023/12/04 04:02:24;;;;;;;13.37;6.77;;;-3.50;75.80;;;-1.39;56.75;97438.56;5011266;28;20049;-61
2023/12/04 04:04:52;;;;;;;10.93;6.93;;;-3.60;76.30;;;-1.43;56.82;97442.28;5011070;28;20042;-59
2023/12/04 04:07:19;;;;;;;14.57;7.00;;;-3.50;77.10;;;-1.44;56.64;97437.97;5011321;28;20049;-59
2023/12/04 04:09:47;;;;;;;11.73;6.70;;;-3.60;75.80;;;-1.44;57.15;97441.41;5011153;28;20046;-59
2023/12/04 04:12:15;;;;;;;10.90;6.17;;;-3.60;76.70;;;-1.45;56.95;97438.94;5011137;28;20050;-59
2023/12/04 04:14:42;;;;;;;10.80;6.17;;;-3.60;77.30;;;-1.46;56.99;97439.84;5010982;28;20415;-59
2023/12/04 04:17:10;;;;;;;13.33;6.90;;;-3.60;77.70;;;-1.48;56.62;97433.88;5011073;28;20050;-59
2023/12/04 04:19:38;;;;;;;11.03;6.10;;;-3.60;76.70;;;-1.48;56.58;97431.25;5011096;28;20048;-59
2023/12/04 04:22:05;;;;;;;12.57;6.80;;;-3.50;76.40;;;-1.47;57.11;97425.94;5010879;28;20061;-59
2023/12/04 04:24:34;;;;;;;11.33;6.07;;;-3.40;75.90;;;-1.42;56.81;97423.06;5011310;28;20041;-59
2023/12/04 04:27:01;;;;;;;8.73;5.50;;;-3.40;75.60;;;-1.40;57.30;97426.41;5010852;28;20042;-59
2023/12/04 04:29:29;;;;;;;14.30;6.87;;;-3.40;75.80;;;-1.40;57.17;97426.41;5010995;28;20042;-59
2023/12/04 04:31:57;;;;;;;12.27;7.07;;;-3.30;75.90;;;-1.41;56.79;97437.81;5010987;28;20046;-59
2023/12/04 04:34:24;;;;;;;12.20;6.17;;;-3.30;75.10;;;-1.40;56.78;97435.09;5010963;28;20504;-59
2023/12/04 04:36:52;;;;;;;13.77;7.17;;;-3.30;75.40;;;-1.34;57.20;97419.97;5009612;28;20508;-59
2023/12/04 04:39:20;;;;;;;9.63;6.13;;;-3.30;75.40;;;-1.30;57.10;97422.34;5010909;28;20046;-59
2023/12/04 04:41:48;;;;;;;10.97;5.77;;;-3.30;75.50;;;-1.26;56.58;97426.44;5010615;28;20038;-59
2023/12/04 04:44:15;;;;;;;8.27;5.70;;;-3.20;74.80;;;-1.23;57.12;97420.19;5010589;28;20045;-60
2023/12/04 04:46:43;;;;;;;10.30;5.77;;;-3.20;75.20;;;-1.24;56.88;97416.72;5010622;28;20049;-60
2023/12/04 04:49:11;;;;;;;11.53;6.27;;;-3.20;74.60;;;-1.24;56.59;97416.72;5011844;28;20541;-59
2023/12/04 04:51:38;;;;;;;11.90;6.33;;;-3.10;74.60;;;-1.24;57.16;97403.66;5014660;28;20042;-60
2023/12/04 04:54:06;;;;;;;11.83;6.00;;;-3.10;74.50;;;-1.23;56.61;97405.34;5014732;28;20422;-59
2023/12/04 04:56:34;;;;;;;12.40;6.53;;;-3.10;73.50;;;-1.26;56.40;97400.31;5014584;28;20045;-59
2023/12/04 04:59:01;;;;;;;10.40;6.07;;;-3.10;74.50;;;-1.28;56.93;97396.97;5014574;28;20049;-60
2023/12/04 05:01:29;;;;;;;13.33;7.67;;;-3.10;74.90;;;-1.35;56.95;97395.66;5013314;28;20038;-59
2023/12/04 05:03:57;;;;;;;43.57;15.73;;;-3.30;74.80;;;-1.31;57.23;97398.91;5015122;28;20046;-59
2023/12/04 05:06:25;;;;;;;55.70;20.77;;;-3.20;74.50;;;-1.34;57.03;97394.69;5013072;28;20049;-59
2023/12/04 05:08:53;;;;;;;61.67;22.50;;;-3.20;74.40;;;-1.33;56.98;97388.56;5013220;28;20038;-59
2023/12/04 05:11:21;;;;;;;116.10;44.37;;;-3.30;75.30;;;-1.26;56.71;97384.63;5013958;28;20058;-60
2023/12/04 05:13:49;;;;;;;68.40;27.30;;;-3.20;75.70;;;-1.26;56.49;97384.63;5012874;28;20615;-60
2023/12/04 05:16:16;;;;;;;83.50;34.43;;;-3.30;75.10;;;-1.23;56.91;97378.38;5011779;28;20065;-60
2023/12/04 05:18:44;;;;;;;180.93;68.57;;;-3.30;75.50;;;-1.20;57.09;97372.97;5014226;28;20045;-59
2023/12/04 05:21:12;;;;;;;111.43;40.77;;;-3.30;75.70;;;-1.17;56.87;97370.16;5014245;28;20300;-59
2023/12/04 05:23:40;;;;;;;61.30;25.80;;;-3.20;76.10;;;-1.14;56.43;97353.44;5014376;28;20038;-59
2023/12/04 05:26:07;;;;;;;53.90;20.97;;;-3.10;75.20;;;-1.07;56.46;97354.75;5013713;28;20050;-59
2023/12/04 05:28:35;;;;;;;17.60;8.93;;;-3.10;75.40;;;-0.97;56.30;97362.84;5014017;28;20041;-63
2023/12/04 05:31:03;;;;;;;12.37;7.10;;;-3.00;74.80;;;-1.01;56.56;97355.22;5013877;28;20042;-60
2023/12/04 05:33:31;;;;;;;12.57;6.17;;;-3.10;74.90;;;-0.97;56.31;97355.84;5013858;28;20091;-59
2023/12/04 05:36:00;;;;;;;9.57;6.10;;;-3.10;75.80;;;-0.94;56.31;97366.13;5012367;28;20042;-60
2023/12/04 05:38:28;;;;;;;11.17;6.03;;;-3.00;75.50;;;-0.87;56.87;97363.97;5012480;28;20049;-59
2023/12/04 05:40:55;;;;;;;8.57;5.57;;;-2.90;75.00;;;-0.84;56.15;97356.75;5013764;28;20053;-59
2023/12/04 05:43:23;;;;;;;30.10;14.57;;;-2.90;74.60;;;-0.77;56.61;97359.00;5013596;28;20049;-59
2023/12/04 05:45:51;;;;;;;25.07;13.93;;;-2.80;74.70;;;-0.76;55.99;97365.88;5012370;28;20510;-59
2023/12/04 05:48:19;;;;;;;14.37;10.40;;;-2.80;74.80;;;-0.76;56.46;97364.09;5012535;28;20042;-60
2023/12/04 05:50:47;;;;;;;16.67;9.63;;;-2.90;74.70;;;-0.78;56.39;97354.69;5012092;28;20272;-59
2023/12/04 05:53:14;;;;;;;17.60;10.00;;;-3.00;75.30;;;-0.80;56.21;97363.44;5013946;28;20057;-59
2023/12/04 05:55:42;;;;;;;12.40;7.47;;;-3.00;75.70;;;-0.82;55.50;97356.66;5013654;28;20046;-59
2023/12/04 05:58:10;;;;;;;16.50;8.53;;;-3.10;75.60;;;-0.85;56.43;97364.72;5013757;28;20046;-59
2023/12/04 06:00:37;;;;;;;15.23;7.03;;;-3.10;76.20;;;-0.89;55.84;97363.19;5012887;28;20041;-59
2023/12/04 06:03:05;;;;;;;15.13;7.67;;;-3.20;76.20;;;-0.91;56.30;97365.06;5013371;28;20415;-59
2023/12/04 06:05:33;;;;;;;14.07;7.47;;;-3.30;77.10;;;-0.92;55.80;97359.00;5013217;28;20029;-59
2023/12/04 06:08:00;;;;;;;12.87;6.80;;;-3.20;77.20;;;-0.92;56.23;97366.03;5013426;28;20045;-59
2023/12/04 06:10:28;;;;;;;14.67;7.93;;;-3.20;77.30;;;-0.94;56.42;97360.06;5013101;28;20435;-59
2023/12/04 06:12:55;;;;;;;18.77;9.53;;;-3.20;77.30;;;-0.96;56.49;97369.75;5013333;28;20057;-51
2023/12/04 06:15:23;;;;;;;18.20;10.00;;;-3.20;76.60;;;-0.97;56.19;97378.53;5012793;28;20042;-53
2023/12/04 06:17:51;;;;;;;12.67;7.03;;;-3.20;76.90;;;-1.02;56.18;97377.03;5013464;28;20060;-52
2023/12/04 06:20:18;;;;;;;14.47;8.07;;;-3.30;76.30;;;-1.06;56.24;97379.97;5012345;28;20110;-51
2023/12/04 06:22:46;;;;;;;13.37;7.20;;;-3.40;76.80;;;-1.12;55.63;97375.94;5013094;28;20045;-53
2023/12/04 06:25:15;;;;;;;13.20;7.57;;;-3.50;77.70;;;-1.12;56.11;97369.88;5012839;28;20046;-54
2023/12/04 06:27:43;;;;;;;13.83;7.67;;;-3.50;77.70;;;-1.14;55.88;97358.66;5013054;28;20034;-53
2023/12/04 06:30:11;;;;;;;15.03;7.23;;;-3.40;77.60;;;-1.16;55.83;97355.31;5012846;28;20376;-50
2023/12/04 06:32:39;;;;;;;14.57;7.57;;;-3.50;77.90;;;-1.17;56.55;97356.25;5005080;28;20042;-51
2023/12/04 06:35:08;;;;;;;15.43;8.50;;;-3.50;79.00;;;-1.19;56.77;97353.75;5012619;28;20061;-53
2023/12/04 06:37:39;;;;;;;16.90;8.40;;;-3.50;78.70;;;-1.17;55.85;97351.88;5012760;28;20038;-53
2023/12/04 06:40:08;;;;;;;13.17;7.83;;;-3.50;79.00;;;-1.15;56.79;97352.63;5013041;28;20053;-51
2023/12/04 06:42:36;;;;;;;16.37;9.43;;;-3.40;78.60;;;-1.13;56.25;97342.91;5012503;28;20364;-55
2023/12/04 06:45:05;;;;;;;18.17;8.90;;;-3.30;78.60;;;-1.12;56.29;97336.75;5012421;28;20046;-51
2023/12/04 06:47:35;;;;;;;14.97;8.70;;;-3.30;78.20;;;-1.12;56.72;97334.16;5012674;28;20046;-53
2023/12/04 06:50:03;;;;;;;14.17;7.83;;;-3.40;78.20;;;-1.13;56.32;97332.44;5012048;28;20046;-51
2023/12/04 06:52:30;;;;;;;12.67;7.87;;;-3.40;79.00;;;-1.11;56.78;97335.81;5012268;28;20049;-49
2023/12/04 06:54:58;;;;;;;13.07;8.57;;;-3.30;78.70;;;-1.12;57.00;97330.69;5012330;28;20065;-50
2023/12/04 06:57:26;;;;;;;17.80;7.87;;;-3.30;78.80;;;-1.10;56.24;97321.00;5012529;28;20522;-52
2023/12/04 06:59:54;;;;;;;14.17;8.13;;;-3.30;79.20;;;-1.09;56.83;97313.03;5012167;28;20042;-54
2023/12/04 07:02:21;;;;;;;14.60;8.40;;;-3.40;79.10;;;-1.07;56.47;97310.31;5012037;28;20519;-52
2023/12/04 07:04:49;;;;;;;23.03;10.77;;;-3.30;79.30;;;-1.07;56.47;97300.72;5012129;28;20038;-54
2023/12/04 07:07:17;;;;;;;23.13;11.13;;;-3.30;79.10;;;-1.06;57.08;97307.63;5011151;28;20046;-54
2023/12/04 07:09:44;;;;;;;23.03;10.80;;;-3.30;78.80;;;-1.03;57.11;97299.59;5012124;28;20038;-51
2023/12/04 07:12:12;;;;;;;15.33;8.67;;;-3.20;79.00;;;-1.02;57.06;97298.66;5011571;28;20418;-54
2023/12/04 07:14:40;;;;;;;19.13;8.97;;;-3.30;78.60;;;-1.02;56.63;97296.03;5011289;28;20049;-50
2023/12/04 07:17:07;;;;;;;18.87;9.30;;;-3.30;78.80;;;-1.03;57.20;97299.59;5012335;28;20057;-53
2023/12/04 07:19:35;;;;;;;14.00;8.80;;;-3.30;79.10;;;-1.05;57.10;97295.38;5011975;28;20045;-54
2023/12/04 07:22:03;;;;;;;17.67;9.67;;;-3.20;79.10;;;-1.04;56.72;97290.06;5010082;28;20140;-54
2023/12/04 07:24:31;;;;;;;17.27;9.03;;;-3.20;78.00;;;-1.02;57.43;97293.44;5010876;28;20074;-53
2023/12/04 07:26:59;;;;;;;14.83;8.33;;;-3.20;78.40;;;-0.97;56.56;97290.50;5011260;28;20045;-52
2023/12/04 07:29:26;;;;;;;16.10;7.63;;;-3.20;78.30;;;-0.97;57.13;97287.06;5011885;28;20049;-54
2023/12/04 07:31:54;;;;;;;17.20;8.40;;;-3.20;78.10;;;-0.94;56.71;97292.09;5011796;28;20065;-53
2023/12/04 07:34:21;;;;;;;13.10;7.40;;;-3.10;78.80;;;-0.94;56.67;97279.03;5011381;28;20349;-54
2023/12/04 07:36:49;;;;;;;17.50;8.70;;;-3.10;78.60;;;-0.93;56.46;97276.34;5010142;28;20042;-51
2023/12/04 07:39:17;;;;;;;12.53;7.80;;;-3.10;78.50;;;-0.91;56.62;97274.47;5011588;28;20514;-52
2023/12/04 07:41:45;;;;;;;18.13;9.97;;;-3.10;78.60;;;-0.88;56.47;97274.25;5000590;28;20053;-54
2023/12/04 07:44:19;;;;;;;15.40;9.53;;;-3.10;78.80;;;-0.86;56.85;97274.16;5068230;28;20406;-53
2023/12/04 07:46:47;;;;;;;17.77;9.03;;;-3.10;79.00;;;-0.87;57.19;97268.09;5046890;28;20512;-54
2023/12/04 07:49:14;;;;;;;15.23;8.77;;;-3.20;80.00;;;-0.85;57.09;97258.38;5047956;28;20056;-53
2023/12/04 07:51:42;;;;;;;14.33;7.60;;;-3.10;79.90;;;-0.82;57.14;97267.78;5047569;28;20436;-51
2023/12/04 07:54:10;;;;;;;16.67;8.63;;;-3.10;80.20;;;-0.80;56.79;97266.72;5048026;28;20076;-52
2023/12/04 07:56:39;;;;;;;14.73;9.07;;;-3.00;80.10;;;-0.78;56.85;97276.28;5047737;28;20042;-52
2023/12/04 07:59:06;;;;;;;14.20;8.07;;;-3.00;79.20;;;-0.77;56.95;97259.66;5046790;28;20029;-51
2023/12/04 08:01:34;;;;;;;14.23;8.20;;;-2.90;79.50;;;-0.73;57.70;97256.72;5047533;28;20412;-50
2023/12/04 08:04:02;;;;;;;15.83;7.53;;;-2.80;78.80;;;-0.70;57.02;97264.38;5047833;28;20049;-50
2023/12/04 08:06:30;;;;;;;14.60;8.37;;;-2.80;78.90;;;-0.64;57.51;97266.59;5047248;28;20409;-50
2023/12/04 08:08:59;;;;;;;12.20;7.13;;;-2.80;79.40;;;-0.57;56.78;97267.00;5047702;28;20037;-51
2023/12/04 08:11:26;;;;;;;11.37;7.37;;;-2.70;78.60;;;-0.52;57.44;97270.19;5047678;28;20045;-54
2023/12/04 08:13:54;;;;;;;13.77;7.93;;;-2.60;78.50;;;-0.49;57.17;97276.97;5047485;28;20037;-51
2023/12/04 08:16:22;;;;;;;11.73;7.10;;;-2.60;77.80;;;-0.48;57.36;97289.13;5044821;28;20060;-51
2023/12/04 08:18:49;;;;;;;12.43;8.30;;;-2.60;76.80;;;-0.43;57.24;97285.25;5047581;28;20045;-51
2023/12/04 08:21:17;;;;;;;14.43;7.90;;;-2.50;77.60;;;-0.40;57.05;97277.19;5047518;28;20048;-52
2023/12/04 08:23:45;;;;;;;15.93;8.63;;;-2.50;77.70;;;-0.37;56.53;97260.44;5047341;28;20493;-50
2023/12/04 08:26:13;;;;;;;17.93;10.10;;;-2.60;78.00;;;-0.31;56.88;97253.97;5046947;28;20046;-50
2023/12/04 08:28:41;;;;;;;16.97;9.00;;;-2.50;78.20;;;-0.27;56.86;97245.84;5047283;28;20398;-51
2023/12/04 08:31:09;;;;;;;14.50;8.00;;;-2.40;78.00;;;-0.22;56.99;97229.81;5047705;28;20447;-49
2023/12/04 08:33:37;;;;;;;15.97;9.40;;;-2.30;78.00;;;-0.19;56.66;97216.53;5047230;28;20049;-52
2023/12/04 08:36:05;;;;;;;15.97;10.30;;;-2.20;77.40;;;-0.18;57.55;97218.19;5046240;28;20416;-51
2023/12/04 08:38:33;;;;;;;16.17;9.83;;;-2.30;77.80;;;-0.17;56.72;97225.13;5047128;28;20045;-54
2023/12/04 08:41:01;;;;;;;11.47;7.57;;;-2.30;78.40;;;-0.13;57.25;97223.13;5047081;28;20044;-52
2023/12/04 08:43:29;;;;;;;14.97;8.63;;;-2.30;78.50;;;-0.08;57.11;97221.00;5047151;28;20049;-50
2023/12/04 08:45:56;;;;;;;13.70;7.47;;;-2.20;78.80;;;-0.02;57.75;97221.44;5046495;28;20493;-52
2023/12/04 08:48:24;;;;;;;13.13;7.17;;;-2.10;78.80;;;0.04;57.34;97198.38;5042480;28;20341;-51
2023/12/04 08:50:52;;;;;;;12.70;6.80;;;-2.00;78.70;;;0.09;56.98;97199.75;5037105;28;20045;-53
2023/12/04 08:53:20;;;;;;;12.70;7.60;;;-2.00;78.20;;;0.13;56.87;97203.00;5037277;28;20049;-51
2023/12/04 08:55:47;;;;;;;14.30;7.77;;;-2.00;78.70;;;0.16;56.94;97202.78;5022784;28;20081;-50
2023/12/04 08:58:15;;;;;;;12.13;7.60;;;-2.00;78.50;;;0.18;57.09;97217.44;5023598;28;20053;-52
2023/12/04 09:00:43;;;;;;;12.23;7.87;;;-1.90;78.20;;;0.22;56.95;97220.69;5025377;28;20056;-50
2023/12/04 09:03:11;;;;;;;11.07;7.07;;;-1.90;78.00;;;0.23;57.13;97219.72;5024999;28;20037;-54
2023/12/04 09:05:51;;;;;;;15.30;7.93;;;-1.80;77.30;;;0.26;56.78;97219.53;5021779;28;20046;-54
2023/12/04 09:08:19;;;;;;;11.70;7.17;;;-1.80;76.60;;;0.26;56.79;97214.28;5038185;28;20056;-53
2023/12/04 09:11:03;;;;;;;12.70;7.75;;;-1.80;76.60;;;0.28;57.35;97212.41;5024288;28;20571;-54
2023/12/04 09:13:49;;;;;;;13.87;7.93;;;-1.70;76.20;;;0.29;56.58;97227.19;5026016;28;20052;-51
2023/12/04 09:16:17;;;;;;;15.20;7.83;;;-1.60;76.10;;;0.34;56.68;97225.06;5025419;28;20045;-52
2023/12/04 09:18:44;;;;;;;11.43;8.07;;;-1.60;76.40;;;0.36;56.64;97222.31;5030329;28;20057;-50
2023/12/04 09:21:12;;;;;;;14.53;7.93;;;-1.70;75.50;;;0.38;57.30;97213.41;5033052;28;20056;-53
2023/12/04 09:23:40;;;;;;;11.83;6.63;;;-1.70;76.40;;;0.44;57.09;97220.00;5032973;28;20053;-52
2023/12/04 09:26:08;;;;;;;16.50;9.20;;;-1.50;77.80;;;0.51;57.20;97217.81;5032787;28;20042;-52
2023/12/04 09:28:36;;;;;;;16.40;9.43;;;-1.40;78.30;;;0.55;57.67;97220.09;5048379;28;20049;-52
2023/12/04 09:31:04;;;;;;;17.13;8.37;;;-1.40;78.40;;;0.63;56.73;97223.94;5032984;28;20040;-53
2023/12/04 09:33:32;;;;;;;17.00;8.40;;;-1.30;77.60;;;0.67;56.86;97230.63;5015207;28;20080;-51
2023/12/04 09:36:00;;;;;;;21.73;11.43;;;-1.20;77.20;;;0.72;57.65;97215.44;5024755;28;20045;-50
2023/12/04 09:38:28;;;;;;;17.70;9.80;;;-1.20;78.10;;;0.76;57.55;97217.72;5032918;28;20505;-51
2023/12/04 09:41:01;;;;;;;16.47;8.60;;;-1.10;77.80;;;0.80;57.59;97220.94;5032056;28;20041;-50
2023/12/04 09:43:32;;;;;;;14.55;9.50;;;-1.10;77.80;;;0.84;57.87;97211.09;5032101;28;20042;-52
2023/12/04 09:46:01;;;;;;;14.33;7.90;;;-1.00;78.10;;;0.86;57.43;97223.13;5023511;28;20045;-51
2023/12/04 09:48:30;;;;;;;22.23;8.80;;;-1.00;78.30;;;0.89;57.64;97222.06;5029673;28;21621;-55
2023/12/04 09:50:58;;;;;;;11.40;7.80;;;-1.00;79.00;;;0.91;57.31;97225.41;5028725;28;20052;-55
2023/12/04 09:53:28;;;;;;;12.90;7.47;;;-1.10;79.30;;;0.94;57.59;97205.06;5030238;28;20502;-52
2023/12/04 09:55:59;;;;;;;9.73;5.63;;;-1.00;78.10;;;0.92;57.27;97193.84;5029451;28;20429;-52
2023/12/04 09:58:29;;;;;;;9.20;5.60;;;-0.90;77.60;;;0.93;57.64;97198.16;5029988;28;20056;-51
2023/12/04 10:01:00;;;;;;;10.40;5.67;;;-0.80;77.50;;;1.02;57.66;97199.25;5029653;28;20038;-52
2023/12/04 10:03:29;;;;;;;9.40;5.60;;;-0.70;77.70;;;1.10;57.33;97183.78;5029975;28;20049;-56
2023/12/04 10:05:58;;;;;;;8.77;5.53;;;-0.70;78.00;;;1.15;57.55;97178.22;5028722;28;20037;-55
2023/12/04 10:08:25;;;;;;;11.07;6.27;;;-0.60;76.60;;;1.20;57.43;97185.72;5031366;28;20042;-55
2023/12/04 10:10:53;;;;;;;10.50;6.37;;;-0.60;77.60;;;1.22;58.00;97183.81;5029725;28;20120;-53
2023/12/04 10:13:21;;;;;;;10.83;6.80;;;-0.60;77.40;;;1.26;57.28;97173.00;5030935;28;20045;-55
2023/12/04 10:16:09;;;;;;;11.37;6.27;;;-0.60;77.10;;;1.25;57.46;97176.56;5027889;28;20163;-55